sensor_id;sensor_type;location;lat;lon;timestamp;P1;durP1;ratioP1;P2;durP2;ratioP2
27412;SDS011;14871;52.702;5.230;2023-02-20T00:00:50;17.85;;;11.38;;
27412;SDS011;14871;52.702;5.230;2023-02-20T00:03:16;21.08;;;12.57;;
27412;SDS011;14871;52.702;5.230;2023-02-20T00:05:42;19.90;;;11.27;;
27412;SDS011;14871;52.702;5.230;2023-02-20T00:08:08;20.38;;;11.05;;
27412;SDS011;14871;52.702;5.230;2023-02-20T00:10:33;17.75;;;11.02;;
27412;SDS011;14871;52.702;5.230;2023-02-20T00:12:59;16.77;;;10.88;;
27412;SDS011;14871;52.702;5.230;2023-02-20T00:15:25;17.83;;;11.00;;
27412;SDS011;14871;52.702;5.230;2023-02-20T00:17:50;15.38;;;9.95;;
27412;SDS011;14871;52.702;5.230;2023-02-20T00:20:18;20.33;;;10.68;;
27412;SDS011;14871;52.702;5.230;2023-02-20T00:22:45;18.27;;;10.95;;
27412;SDS011;14871;52.702;5.230;2023-02-20T00:25:11;16.35;;;9.95;;
27412;SDS011;14871;52.702;5.230;2023-02-20T00:27:39;14.98;;;8.93;;
27412;SDS011;14871;52.702;5.230;2023-02-20T00:30:06;16.35;;;10.07;;
27412;SDS011;14871;52.702;5.230;2023-02-20T00:32:32;17.10;;;10.52;;
27412;SDS011;14871;52.702;5.230;2023-02-20T00:34:57;18.45;;;12.07;;
27412;SDS011;14871;52.702;5.230;2023-02-20T00:37:23;19.52;;;11.70;;
27412;SDS011;14871;52.702;5.230;2023-02-20T00:39:48;23.13;;;11.18;;
27412;SDS011;14871;52.702;5.230;2023-02-20T00:42:14;19.23;;;11.05;;
27412;SDS011;14871;52.702;5.230;2023-02-20T00:44:39;16.05;;;10.52;;
27412;SDS011;14871;52.702;5.230;2023-02-20T00:47:05;20.15;;;11.35;;
27412;SDS011;14871;52.702;5.230;2023-02-20T00:49:31;18.65;;;11.38;;
27412;SDS011;14871;52.702;5.230;2023-02-20T00:51:56;23.95;;;11.85;;
27412;SDS011;14871;52.702;5.230;2023-02-20T00:54:22;19.55;;;11.05;;
27412;SDS011;14871;52.702;5.230;2023-02-20T00:56:47;20.23;;;11.70;;
27412;SDS011;14871;52.702;5.230;2023-02-20T00:59:13;21.55;;;11.18;;
27412;SDS011;14871;52.702;5.230;2023-02-20T01:01:39;19.58;;;11.55;;
27412;SDS011;14871;52.702;5.230;2023-02-20T01:04:04;21.73;;;10.77;;
27412;SDS011;14871;52.702;5.230;2023-02-20T01:06:30;25.23;;;11.75;;
27412;SDS011;14871;52.702;5.230;2023-02-20T01:08:55;21.50;;;12.15;;
27412;SDS011;14871;52.702;5.230;2023-02-20T01:11:21;26.92;;;12.55;;
27412;SDS011;14871;52.702;5.230;2023-02-20T01:13:47;22.30;;;11.70;;
27412;SDS011;14871;52.702;5.230;2023-02-20T01:16:13;21.33;;;12.18;;
27412;SDS011;14871;52.702;5.230;2023-02-20T01:18:38;19.58;;;11.82;;
27412;SDS011;14871;52.702;5.230;2023-02-20T01:21:04;17.42;;;11.15;;
27412;SDS011;14871;52.702;5.230;2023-02-20T01:23:29;22.30;;;12.35;;
27412;SDS011;14871;52.702;5.230;2023-02-20T01:25:55;20.75;;;11.15;;
27412;SDS011;14871;52.702;5.230;2023-02-20T01:28:21;20.02;;;11.95;;
27412;SDS011;14871;52.702;5.230;2023-02-20T01:30:46;22.85;;;11.05;;
27412;SDS011;14871;52.702;5.230;2023-02-20T01:33:12;24.63;;;12.00;;
27412;SDS011;14871;52.702;5.230;2023-02-20T01:35:38;27.83;;;13.48;;
27412;SDS011;14871;52.702;5.230;2023-02-20T01:38:03;21.25;;;11.57;;
27412;SDS011;14871;52.702;5.230;2023-02-20T01:40:31;19.42;;;11.48;;
27412;SDS011;14871;52.702;5.230;2023-02-20T01:42:57;26.05;;;12.27;;
27412;SDS011;14871;52.702;5.230;2023-02-20T01:47:52;23.20;;;11.25;;
27412;SDS011;14871;52.702;5.230;2023-02-20T01:50:20;28.27;;;10.73;;
27412;SDS011;14871;52.702;5.230;2023-02-20T01:52:54;33.47;;;11.27;;
27412;SDS011;14871;52.702;5.230;2023-02-20T01:55:29;23.60;;;10.73;;
27412;SDS011;14871;52.702;5.230;2023-02-20T01:58:04;22.55;;;10.60;;
27412;SDS011;14871;52.702;5.230;2023-02-20T02:00:34;26.45;;;10.10;;
27412;SDS011;14871;52.702;5.230;2023-02-20T02:03:04;25.30;;;10.70;;
27412;SDS011;14871;52.702;5.230;2023-02-20T02:05:45;24.58;;;9.13;;
27412;SDS011;14871;52.702;5.230;2023-02-20T02:08:13;25.25;;;8.50;;
27412;SDS011;14871;52.702;5.230;2023-02-20T02:10:46;21.48;;;7.35;;
27412;SDS011;14871;52.702;5.230;2023-02-20T02:13:29;30.45;;;8.00;;
27412;SDS011;14871;52.702;5.230;2023-02-20T02:16:39;23.20;;;6.57;;
27412;SDS011;14871;52.702;5.230;2023-02-20T02:19:31;29.65;;;8.10;;
27412;SDS011;14871;52.702;5.230;2023-02-20T02:24:29;23.50;;;7.15;;
27412;SDS011;14871;52.702;5.230;2023-02-20T02:41:53;24.70;;;5.75;;
27412;SDS011;14871;52.702;5.230;2023-02-20T02:47:00;30.33;;;7.80;;
27412;SDS011;14871;52.702;5.230;2023-02-20T02:51:58;26.77;;;7.90;;
27412;SDS011;14871;52.702;5.230;2023-02-20T02:54:25;21.98;;;6.35;;
27412;SDS011;14871;52.702;5.230;2023-02-20T02:56:53;22.40;;;8.02;;
27412;SDS011;14871;52.702;5.230;2023-02-20T02:59:39;25.10;;;7.13;;
27412;SDS011;14871;52.702;5.230;2023-02-20T03:02:07;24.33;;;7.50;;
27412;SDS011;14871;52.702;5.230;2023-02-20T03:04:35;28.30;;;8.05;;
27412;SDS011;14871;52.702;5.230;2023-02-20T03:07:04;17.45;;;6.15;;
27412;SDS011;14871;52.702;5.230;2023-02-20T03:09:37;29.38;;;8.98;;
27412;SDS011;14871;52.702;5.230;2023-02-20T03:12:07;33.03;;;9.10;;
27412;SDS011;14871;52.702;5.230;2023-02-20T03:14:37;23.75;;;8.15;;
27412;SDS011;14871;52.702;5.230;2023-02-20T03:17:46;28.95;;;8.30;;
27412;SDS011;14871;52.702;5.230;2023-02-20T03:20:19;33.97;;;8.07;;
27412;SDS011;14871;52.702;5.230;2023-02-20T03:22:47;26.83;;;8.32;;
27412;SDS011;14871;52.702;5.230;2023-02-20T03:25:20;35.13;;;8.65;;
27412;SDS011;14871;52.702;5.230;2023-02-20T03:28:10;26.00;;;8.80;;
27412;SDS011;14871;52.702;5.230;2023-02-20T03:33:16;46.13;;;9.85;;
27412;SDS011;14871;52.702;5.230;2023-02-20T03:36:39;33.17;;;11.00;;
27412;SDS011;14871;52.702;5.230;2023-02-20T03:39:29;40.33;;;10.77;;
27412;SDS011;14871;52.702;5.230;2023-02-20T03:42:19;36.38;;;10.77;;
27412;SDS011;14871;52.702;5.230;2023-02-20T03:45:04;33.40;;;9.80;;
27412;SDS011;14871;52.702;5.230;2023-02-20T03:47:32;31.73;;;10.88;;
27412;SDS011;14871;52.702;5.230;2023-02-20T03:50:01;34.42;;;10.85;;
27412;SDS011;14871;52.702;5.230;2023-02-20T03:52:30;40.10;;;12.48;;
27412;SDS011;14871;52.702;5.230;2023-02-20T03:54:56;36.63;;;12.00;;
27412;SDS011;14871;52.702;5.230;2023-02-20T03:57:23;32.03;;;10.52;;
27412;SDS011;14871;52.702;5.230;2023-02-20T03:59:56;34.85;;;10.45;;
27412;SDS011;14871;52.702;5.230;2023-02-20T04:02:28;48.67;;;12.60;;
27412;SDS011;14871;52.702;5.230;2023-02-20T04:04:57;37.88;;;12.45;;
27412;SDS011;14871;52.702;5.230;2023-02-20T04:07:32;38.45;;;11.88;;
27412;SDS011;14871;52.702;5.230;2023-02-20T04:10:01;26.38;;;10.48;;
27412;SDS011;14871;52.702;5.230;2023-02-20T04:12:32;27.77;;;9.50;;
27412;SDS011;14871;52.702;5.230;2023-02-20T04:15:01;28.08;;;11.02;;
27412;SDS011;14871;52.702;5.230;2023-02-20T04:17:33;32.80;;;10.43;;
27412;SDS011;14871;52.702;5.230;2023-02-20T04:20:04;36.60;;;9.77;;
27412;SDS011;14871;52.702;5.230;2023-02-20T04:22:30;23.15;;;7.65;;
27412;SDS011;14871;52.702;5.230;2023-02-20T04:25:02;18.45;;;7.78;;
27412;SDS011;14871;52.702;5.230;2023-02-20T04:27:36;36.50;;;9.95;;
27412;SDS011;14871;52.702;5.230;2023-02-20T04:30:03;27.08;;;10.35;;
27412;SDS011;14871;52.702;5.230;2023-02-20T04:32:29;32.70;;;10.85;;
27412;SDS011;14871;52.702;5.230;2023-02-20T04:34:54;26.75;;;8.02;;
27412;SDS011;14871;52.702;5.230;2023-02-20T04:37:21;23.42;;;7.68;;
27412;SDS011;14871;52.702;5.230;2023-02-20T04:39:47;27.73;;;9.32;;
27412;SDS011;14871;52.702;5.230;2023-02-20T04:42:12;25.23;;;8.82;;
27412;SDS011;14871;52.702;5.230;2023-02-20T04:44:38;17.85;;;7.70;;
27412;SDS011;14871;52.702;5.230;2023-02-20T04:47:07;23.25;;;9.25;;
27412;SDS011;14871;52.702;5.230;2023-02-20T04:49:37;22.27;;;8.38;;
27412;SDS011;14871;52.702;5.230;2023-02-20T04:52:02;27.60;;;9.50;;
27412;SDS011;14871;52.702;5.230;2023-02-20T04:54:28;25.52;;;9.02;;
27412;SDS011;14871;52.702;5.230;2023-02-20T04:56:54;22.20;;;7.88;;
27412;SDS011;14871;52.702;5.230;2023-02-20T04:59:20;28.00;;;9.88;;
27412;SDS011;14871;52.702;5.230;2023-02-20T05:01:45;33.72;;;9.27;;
27412;SDS011;14871;52.702;5.230;2023-02-20T05:04:16;22.70;;;8.02;;
27412;SDS011;14871;52.702;5.230;2023-02-20T05:06:44;24.23;;;7.60;;
27412;SDS011;14871;52.702;5.230;2023-02-20T05:09:12;25.92;;;8.30;;
27412;SDS011;14871;52.702;5.230;2023-02-20T05:11:38;22.20;;;8.43;;
27412;SDS011;14871;52.702;5.230;2023-02-20T05:14:04;24.00;;;8.27;;
27412;SDS011;14871;52.702;5.230;2023-02-20T05:16:31;24.60;;;8.35;;
27412;SDS011;14871;52.702;5.230;2023-02-20T05:18:56;21.52;;;8.02;;
27412;SDS011;14871;52.702;5.230;2023-02-20T05:21:24;25.55;;;7.72;;
27412;SDS011;14871;52.702;5.230;2023-02-20T05:24:09;25.20;;;8.15;;
27412;SDS011;14871;52.702;5.230;2023-02-20T05:26:35;19.55;;;8.13;;
27412;SDS011;14871;52.702;5.230;2023-02-20T05:29:01;28.25;;;8.85;;
27412;SDS011;14871;52.702;5.230;2023-02-20T05:31:26;24.15;;;7.60;;
27412;SDS011;14871;52.702;5.230;2023-02-20T05:33:52;21.63;;;8.38;;
27412;SDS011;14871;52.702;5.230;2023-02-20T05:36:17;31.55;;;10.57;;
27412;SDS011;14871;52.702;5.230;2023-02-20T05:38:43;14.50;;;6.68;;
27412;SDS011;14871;52.702;5.230;2023-02-20T05:41:16;19.05;;;8.23;;
27412;SDS011;14871;52.702;5.230;2023-02-20T05:43:44;22.23;;;9.25;;
27412;SDS011;14871;52.702;5.230;2023-02-20T05:46:10;25.90;;;8.90;;
27412;SDS011;14871;52.702;5.230;2023-02-20T05:48:36;26.23;;;7.80;;
27412;SDS011;14871;52.702;5.230;2023-02-20T05:51:01;14.90;;;7.25;;
27412;SDS011;14871;52.702;5.230;2023-02-20T05:53:27;20.95;;;7.50;;
27412;SDS011;14871;52.702;5.230;2023-02-20T05:55:54;24.23;;;9.25;;
27412;SDS011;14871;52.702;5.230;2023-02-20T05:58:20;27.17;;;9.45;;
27412;SDS011;14871;52.702;5.230;2023-02-20T06:00:46;23.20;;;9.75;;
27412;SDS011;14871;52.702;5.230;2023-02-20T06:03:13;17.70;;;7.38;;
27412;SDS011;14871;52.702;5.230;2023-02-20T06:05:39;23.58;;;7.80;;
27412;SDS011;14871;52.702;5.230;2023-02-20T06:08:05;22.48;;;8.95;;
27412;SDS011;14871;52.702;5.230;2023-02-20T06:10:31;21.30;;;7.80;;
27412;SDS011;14871;52.702;5.230;2023-02-20T06:12:57;26.35;;;9.23;;
27412;SDS011;14871;52.702;5.230;2023-02-20T06:15:23;21.80;;;7.75;;
27412;SDS011;14871;52.702;5.230;2023-02-20T06:17:49;20.67;;;8.88;;
27412;SDS011;14871;52.702;5.230;2023-02-20T06:20:15;20.95;;;8.63;;
27412;SDS011;14871;52.702;5.230;2023-02-20T06:22:41;25.92;;;8.88;;
27412;SDS011;14871;52.702;5.230;2023-02-20T06:25:06;15.43;;;7.72;;
27412;SDS011;14871;52.702;5.230;2023-02-20T06:27:32;26.45;;;9.35;;
27412;SDS011;14871;52.702;5.230;2023-02-20T06:29:58;21.73;;;8.88;;
27412;SDS011;14871;52.702;5.230;2023-02-20T06:32:23;19.17;;;8.05;;
27412;SDS011;14871;52.702;5.230;2023-02-20T06:34:49;26.13;;;9.57;;
27412;SDS011;14871;52.702;5.230;2023-02-20T06:37:15;24.17;;;9.65;;
27412;SDS011;14871;52.702;5.230;2023-02-20T06:39:41;31.23;;;10.35;;
27412;SDS011;14871;52.702;5.230;2023-02-20T06:42:10;18.90;;;8.60;;
27412;SDS011;14871;52.702;5.230;2023-02-20T06:44:36;24.73;;;7.43;;
27412;SDS011;14871;52.702;5.230;2023-02-20T06:47:02;25.65;;;9.27;;
27412;SDS011;14871;52.702;5.230;2023-02-20T06:49:32;23.20;;;8.50;;
27412;SDS011;14871;52.702;5.230;2023-02-20T06:52:02;25.33;;;8.68;;
27412;SDS011;14871;52.702;5.230;2023-02-20T06:54:28;19.33;;;7.05;;
27412;SDS011;14871;52.702;5.230;2023-02-20T06:56:54;24.73;;;7.75;;
27412;SDS011;14871;52.702;5.230;2023-02-20T06:59:21;22.85;;;8.02;;
27412;SDS011;14871;52.702;5.230;2023-02-20T07:01:47;19.25;;;7.35;;
27412;SDS011;14871;52.702;5.230;2023-02-20T07:04:17;20.40;;;7.30;;
27412;SDS011;14871;52.702;5.230;2023-02-20T07:06:45;28.50;;;8.20;;
27412;SDS011;14871;52.702;5.230;2023-02-20T07:09:11;19.83;;;7.05;;
27412;SDS011;14871;52.702;5.230;2023-02-20T07:11:37;19.52;;;6.53;;
27412;SDS011;14871;52.702;5.230;2023-02-20T07:14:03;17.67;;;6.72;;
27412;SDS011;14871;52.702;5.230;2023-02-20T07:16:28;25.27;;;6.88;;
27412;SDS011;14871;52.702;5.230;2023-02-20T07:18:55;21.02;;;7.30;;
27412;SDS011;14871;52.702;5.230;2023-02-20T07:21:20;29.13;;;7.63;;
27412;SDS011;14871;52.702;5.230;2023-02-20T07:23:46;21.30;;;7.55;;
27412;SDS011;14871;52.702;5.230;2023-02-20T07:26:19;14.50;;;5.75;;
27412;SDS011;14871;52.702;5.230;2023-02-20T07:28:53;22.50;;;7.75;;
27412;SDS011;14871;52.702;5.230;2023-02-20T07:31:19;24.48;;;8.07;;
27412;SDS011;14871;52.702;5.230;2023-02-20T07:33:45;22.60;;;9.20;;
27412;SDS011;14871;52.702;5.230;2023-02-20T07:36:12;19.33;;;6.38;;
27412;SDS011;14871;52.702;5.230;2023-02-20T07:38:38;20.73;;;6.88;;
27412;SDS011;14871;52.702;5.230;2023-02-20T07:41:04;20.05;;;8.07;;
27412;SDS011;14871;52.702;5.230;2023-02-20T07:43:31;27.75;;;7.82;;
27412;SDS011;14871;52.702;5.230;2023-02-20T07:45:56;23.75;;;8.77;;
27412;SDS011;14871;52.702;5.230;2023-02-20T07:48:22;21.80;;;8.13;;
27412;SDS011;14871;52.702;5.230;2023-02-20T07:50:48;21.98;;;7.43;;
27412;SDS011;14871;52.702;5.230;2023-02-20T07:53:15;14.98;;;6.55;;
27412;SDS011;14871;52.702;5.230;2023-02-20T07:55:41;20.40;;;7.05;;
27412;SDS011;14871;52.702;5.230;2023-02-20T07:58:07;23.13;;;8.05;;
27412;SDS011;14871;52.702;5.230;2023-02-20T08:00:33;19.88;;;7.85;;
27412;SDS011;14871;52.702;5.230;2023-02-20T08:02:59;26.77;;;8.35;;
27412;SDS011;14871;52.702;5.230;2023-02-20T08:05:24;23.70;;;8.88;;
27412;SDS011;14871;52.702;5.230;2023-02-20T08:07:50;23.95;;;8.35;;
27412;SDS011;14871;52.702;5.230;2023-02-20T08:10:18;20.38;;;6.72;;
27412;SDS011;14871;52.702;5.230;2023-02-20T08:12:45;23.35;;;8.18;;
27412;SDS011;14871;52.702;5.230;2023-02-20T08:15:11;18.77;;;6.53;;
27412;SDS011;14871;52.702;5.230;2023-02-20T08:17:38;23.50;;;8.32;;
27412;SDS011;14871;52.702;5.230;2023-02-20T08:20:04;18.40;;;5.95;;
27412;SDS011;14871;52.702;5.230;2023-02-20T08:22:31;26.45;;;8.10;;
27412;SDS011;14871;52.702;5.230;2023-02-20T08:24:57;22.88;;;7.88;;
27412;SDS011;14871;52.702;5.230;2023-02-20T08:27:23;21.75;;;7.55;;
27412;SDS011;14871;52.702;5.230;2023-02-20T08:29:49;23.45;;;7.72;;
27412;SDS011;14871;52.702;5.230;2023-02-20T08:32:14;20.00;;;6.15;;
27412;SDS011;14871;52.702;5.230;2023-02-20T08:34:40;26.70;;;7.80;;
27412;SDS011;14871;52.702;5.230;2023-02-20T08:37:05;26.58;;;8.65;;
27412;SDS011;14871;52.702;5.230;2023-02-20T08:39:33;24.08;;;8.52;;
27412;SDS011;14871;52.702;5.230;2023-02-20T08:41:59;23.88;;;9.23;;
27412;SDS011;14871;52.702;5.230;2023-02-20T08:44:25;20.73;;;8.90;;
27412;SDS011;14871;52.702;5.230;2023-02-20T08:46:50;21.67;;;9.40;;
27412;SDS011;14871;52.702;5.230;2023-02-20T08:49:16;22.92;;;9.35;;
27412;SDS011;14871;52.702;5.230;2023-02-20T08:51:46;20.60;;;9.35;;
27412;SDS011;14871;52.702;5.230;2023-02-20T08:54:13;16.67;;;8.02;;
27412;SDS011;14871;52.702;5.230;2023-02-20T08:56:40;16.88;;;8.18;;
27412;SDS011;14871;52.702;5.230;2023-02-20T08:59:06;17.92;;;8.55;;
27412;SDS011;14871;52.702;5.230;2023-02-20T09:01:32;18.55;;;9.73;;
27412;SDS011;14871;52.702;5.230;2023-02-20T09:03:58;19.55;;;10.02;;
27412;SDS011;14871;52.702;5.230;2023-02-20T09:06:24;19.33;;;8.45;;
27412;SDS011;14871;52.702;5.230;2023-02-20T09:08:50;20.25;;;9.05;;
27412;SDS011;14871;52.702;5.230;2023-02-20T09:11:16;14.13;;;7.88;;
27412;SDS011;14871;52.702;5.230;2023-02-20T09:13:45;20.20;;;7.63;;
27412;SDS011;14871;52.702;5.230;2023-02-20T09:16:12;13.80;;;6.10;;
27412;SDS011;14871;52.702;5.230;2023-02-20T09:18:40;20.67;;;7.80;;
27412;SDS011;14871;52.702;5.230;2023-02-20T09:21:09;22.25;;;8.02;;
27412;SDS011;14871;52.702;5.230;2023-02-20T09:23:39;16.50;;;7.97;;
27412;SDS011;14871;52.702;5.230;2023-02-20T09:26:05;17.05;;;7.65;;
27412;SDS011;14871;52.702;5.230;2023-02-20T09:28:31;21.20;;;7.00;;
27412;SDS011;14871;52.702;5.230;2023-02-20T09:30:56;16.80;;;7.78;;
27412;SDS011;14871;52.702;5.230;2023-02-20T09:33:24;17.67;;;7.95;;
27412;SDS011;14871;52.702;5.230;2023-02-20T09:35:51;16.90;;;7.43;;
27412;SDS011;14871;52.702;5.230;2023-02-20T09:38:18;12.73;;;7.03;;
27412;SDS011;14871;52.702;5.230;2023-02-20T09:40:45;13.73;;;6.18;;
27412;SDS011;14871;52.702;5.230;2023-02-20T09:43:21;16.23;;;6.15;;
27412;SDS011;14871;52.702;5.230;2023-02-20T09:46:11;17.73;;;7.47;;
27412;SDS011;14871;52.702;5.230;2023-02-20T09:49:03;17.85;;;7.10;;
27412;SDS011;14871;52.702;5.230;2023-02-20T09:51:30;22.67;;;7.18;;
27412;SDS011;14871;52.702;5.230;2023-02-20T09:56:39;16.17;;;6.95;;
27412;SDS011;14871;52.702;5.230;2023-02-20T09:59:23;18.25;;;7.38;;
27412;SDS011;14871;52.702;5.230;2023-02-20T10:04:33;19.70;;;9.40;;
27412;SDS011;14871;52.702;5.230;2023-02-20T10:07:08;16.30;;;7.15;;
27412;SDS011;14871;52.702;5.230;2023-02-20T10:09:41;12.85;;;5.68;;
27412;SDS011;14871;52.702;5.230;2023-02-20T10:17:37;20.00;;;7.50;;
27412;SDS011;14871;52.702;5.230;2023-02-20T10:20:34;14.35;;;7.07;;
27412;SDS011;14871;52.702;5.230;2023-02-20T10:26:02;16.83;;;7.32;;
27412;SDS011;14871;52.702;5.230;2023-02-20T10:28:30;21.65;;;7.28;;
27412;SDS011;14871;52.702;5.230;2023-02-20T10:31:04;23.98;;;7.45;;
27412;SDS011;14871;52.702;5.230;2023-02-20T10:36:20;13.88;;;5.85;;
27412;SDS011;14871;52.702;5.230;2023-02-20T10:41:19;18.92;;;7.50;;
27412;SDS011;14871;52.702;5.230;2023-02-20T10:46:43;19.13;;;6.90;;
27412;SDS011;14871;52.702;5.230;2023-02-20T10:49:30;18.55;;;7.05;;
27412;SDS011;14871;52.702;5.230;2023-02-20T10:52:00;21.42;;;7.13;;
27412;SDS011;14871;52.702;5.230;2023-02-20T10:57:28;11.52;;;5.35;;
27412;SDS011;14871;52.702;5.230;2023-02-20T11:00:12;17.52;;;6.25;;
27412;SDS011;14871;52.702;5.230;2023-02-20T11:02:48;25.00;;;6.72;;
27412;SDS011;14871;52.702;5.230;2023-02-20T11:05:21;15.70;;;6.45;;
27412;SDS011;14871;52.702;5.230;2023-02-20T11:07:51;20.98;;;7.15;;
27412;SDS011;14871;52.702;5.230;2023-02-20T11:10:17;14.88;;;4.88;;
27412;SDS011;14871;52.702;5.230;2023-02-20T11:12:50;17.55;;;6.80;;
27412;SDS011;14871;52.702;5.230;2023-02-20T11:15:21;20.30;;;6.70;;
27412;SDS011;14871;52.702;5.230;2023-02-20T11:17:49;16.20;;;5.60;;
27412;SDS011;14871;52.702;5.230;2023-02-20T11:22:59;18.45;;;7.22;;
27412;SDS011;14871;52.702;5.230;2023-02-20T11:25:28;17.25;;;6.68;;
27412;SDS011;14871;52.702;5.230;2023-02-20T11:30:46;17.10;;;6.78;;
27412;SDS011;14871;52.702;5.230;2023-02-20T11:33:18;17.73;;;6.03;;
27412;SDS011;14871;52.702;5.230;2023-02-20T11:36:30;14.27;;;6.30;;
27412;SDS011;14871;52.702;5.230;2023-02-20T11:38:38;19.92;;;6.28;;
27412;SDS011;14871;52.702;5.230;2023-02-20T11:43:34;9.77;;;4.93;;
27412;SDS011;14871;52.702;5.230;2023-02-20T11:46:13;17.08;;;5.82;;
27412;SDS011;14871;52.702;5.230;2023-02-20T11:51:44;19.05;;;6.93;;
27412;SDS011;14871;52.702;5.230;2023-02-20T11:54:13;17.02;;;6.53;;
27412;SDS011;14871;52.702;5.230;2023-02-20T12:04:39;14.60;;;5.75;;
27412;SDS011;14871;52.702;5.230;2023-02-20T12:10:20;16.60;;;5.60;;
27412;SDS011;14871;52.702;5.230;2023-02-20T12:12:47;19.40;;;7.50;;
27412;SDS011;14871;52.702;5.230;2023-02-20T12:15:13;18.25;;;6.38;;
27412;SDS011;14871;52.702;5.230;2023-02-20T12:17:49;13.52;;;5.78;;
27412;SDS011;14871;52.702;5.230;2023-02-20T12:20:29;13.80;;;5.78;;
27412;SDS011;14871;52.702;5.230;2023-02-20T12:23:00;14.82;;;6.80;;
27412;SDS011;14871;52.702;5.230;2023-02-20T12:28:15;19.27;;;5.47;;
27412;SDS011;14871;52.702;5.230;2023-02-20T12:34:03;16.27;;;6.57;;
27412;SDS011;14871;52.702;5.230;2023-02-20T12:36:56;14.75;;;6.32;;
27412;SDS011;14871;52.702;5.230;2023-02-20T12:42:17;13.65;;;6.10;;
27412;SDS011;14871;52.702;5.230;2023-02-20T12:57:41;17.95;;;6.43;;
27412;SDS011;14871;52.702;5.230;2023-02-20T13:03:10;17.85;;;4.97;;
27412;SDS011;14871;52.702;5.230;2023-02-20T13:05:41;17.52;;;5.18;;
27412;SDS011;14871;52.702;5.230;2023-02-20T13:08:53;11.77;;;5.38;;
27412;SDS011;14871;52.702;5.230;2023-02-20T13:11:04;16.48;;;4.95;;
27412;SDS011;14871;52.702;5.230;2023-02-20T13:19:16;15.55;;;5.03;;
27412;SDS011;14871;52.702;5.230;2023-02-20T13:21:58;18.92;;;5.57;;
27412;SDS011;14871;52.702;5.230;2023-02-20T13:26:57;16.65;;;5.57;;
27412;SDS011;14871;52.702;5.230;2023-02-20T13:29:30;19.95;;;4.55;;
27412;SDS011;14871;52.702;5.230;2023-02-20T13:32:02;18.02;;;5.38;;
27412;SDS011;14871;52.702;5.230;2023-02-20T13:34:46;16.23;;;4.25;;
27412;SDS011;14871;52.702;5.230;2023-02-20T13:43:23;14.07;;;4.17;;
27412;SDS011;14871;52.702;5.230;2023-02-20T13:53:41;14.63;;;4.82;;
27412;SDS011;14871;52.702;5.230;2023-02-20T13:56:14;18.35;;;4.40;;
27412;SDS011;14871;52.702;5.230;2023-02-20T13:58:40;17.27;;;4.70;;
27412;SDS011;14871;52.702;5.230;2023-02-20T14:01:06;13.93;;;5.05;;
27412;SDS011;14871;52.702;5.230;2023-02-20T14:03:33;16.42;;;5.45;;
27412;SDS011;14871;52.702;5.230;2023-02-20T14:06:03;14.68;;;4.70;;
27412;SDS011;14871;52.702;5.230;2023-02-20T14:08:35;17.48;;;5.15;;
27412;SDS011;14871;52.702;5.230;2023-02-20T14:13:49;15.05;;;5.88;;
27412;SDS011;14871;52.702;5.230;2023-02-20T14:16:31;22.92;;;6.32;;
27412;SDS011;14871;52.702;5.230;2023-02-20T14:19:13;20.63;;;5.68;;
27412;SDS011;14871;52.702;5.230;2023-02-20T14:24:15;16.80;;;4.70;;
27412;SDS011;14871;52.702;5.230;2023-02-20T14:26:43;19.63;;;5.97;;
27412;SDS011;14871;52.702;5.230;2023-02-20T14:32:04;15.05;;;5.45;;
27412;SDS011;14871;52.702;5.230;2023-02-20T14:37:43;21.13;;;6.32;;
27412;SDS011;14871;52.702;5.230;2023-02-20T14:40:38;15.57;;;6.22;;
27412;SDS011;14871;52.702;5.230;2023-02-20T14:43:11;14.02;;;6.15;;
27412;SDS011;14871;52.702;5.230;2023-02-20T14:45:40;17.65;;;6.65;;
27412;SDS011;14871;52.702;5.230;2023-02-20T14:48:16;13.75;;;5.72;;
27412;SDS011;14871;52.702;5.230;2023-02-20T14:51:02;13.55;;;5.80;;
27412;SDS011;14871;52.702;5.230;2023-02-20T14:54:01;18.52;;;7.15;;
27412;SDS011;14871;52.702;5.230;2023-02-20T14:56:40;16.85;;;5.63;;
27412;SDS011;14871;52.702;5.230;2023-02-20T14:59:22;18.75;;;6.65;;
27412;SDS011;14871;52.702;5.230;2023-02-20T15:01:51;12.93;;;6.47;;
27412;SDS011;14871;52.702;5.230;2023-02-20T15:04:19;12.55;;;6.57;;
27412;SDS011;14871;52.702;5.230;2023-02-20T15:06:47;15.90;;;6.32;;
27412;SDS011;14871;52.702;5.230;2023-02-20T15:09:14;17.25;;;7.72;;
27412;SDS011;14871;52.702;5.230;2023-02-20T15:11:46;17.27;;;6.78;;
27412;SDS011;14871;52.702;5.230;2023-02-20T15:14:24;11.43;;;5.85;;
27412;SDS011;14871;52.702;5.230;2023-02-20T15:19:45;13.07;;;5.53;;
27412;SDS011;14871;52.702;5.230;2023-02-20T15:24:53;15.20;;;7.03;;
27412;SDS011;14871;52.702;5.230;2023-02-20T15:27:38;16.50;;;6.70;;
27412;SDS011;14871;52.702;5.230;2023-02-20T15:32:40;15.90;;;6.53;;
27412;SDS011;14871;52.702;5.230;2023-02-20T15:35:18;21.05;;;7.97;;
27412;SDS011;14871;52.702;5.230;2023-02-20T15:37:47;14.75;;;7.20;;
27412;SDS011;14871;52.702;5.230;2023-02-20T15:42:41;15.45;;;7.55;;
27412;SDS011;14871;52.702;5.230;2023-02-20T15:45:08;12.23;;;6.15;;
27412;SDS011;14871;52.702;5.230;2023-02-20T15:47:36;19.73;;;7.60;;
27412;SDS011;14871;52.702;5.230;2023-02-20T15:50:02;20.42;;;8.40;;
27412;SDS011;14871;52.702;5.230;2023-02-20T15:52:29;19.38;;;8.80;;
27412;SDS011;14871;52.702;5.230;2023-02-20T15:54:55;21.45;;;8.30;;
27412;SDS011;14871;52.702;5.230;2023-02-20T15:57:22;26.70;;;12.70;;
27412;SDS011;14871;52.702;5.230;2023-02-20T15:59:48;23.98;;;9.52;;
27412;SDS011;14871;52.702;5.230;2023-02-20T16:02:16;18.20;;;8.75;;
27412;SDS011;14871;52.702;5.230;2023-02-20T16:04:48;21.05;;;9.63;;
27412;SDS011;14871;52.702;5.230;2023-02-20T16:07:15;18.30;;;8.48;;
27412;SDS011;14871;52.702;5.230;2023-02-20T16:09:42;29.65;;;12.27;;
27412;SDS011;14871;52.702;5.230;2023-02-20T16:12:12;21.48;;;9.07;;
27412;SDS011;14871;52.702;5.230;2023-02-20T16:14:41;18.00;;;8.82;;
27412;SDS011;14871;52.702;5.230;2023-02-20T16:17:08;19.33;;;8.13;;
27412;SDS011;14871;52.702;5.230;2023-02-20T16:19:46;20.25;;;7.85;;
27412;SDS011;14871;52.702;5.230;2023-02-20T16:22:11;20.52;;;7.72;;
27412;SDS011;14871;52.702;5.230;2023-02-20T16:24:37;17.15;;;8.95;;
27412;SDS011;14871;52.702;5.230;2023-02-20T16:27:04;20.30;;;8.85;;
27412;SDS011;14871;52.702;5.230;2023-02-20T16:29:31;23.95;;;9.75;;
27412;SDS011;14871;52.702;5.230;2023-02-20T16:34:29;21.73;;;7.32;;
27412;SDS011;14871;52.702;5.230;2023-02-20T16:36:56;23.73;;;8.98;;
27412;SDS011;14871;52.702;5.230;2023-02-20T16:39:22;18.05;;;9.02;;
27412;SDS011;14871;52.702;5.230;2023-02-20T16:41:48;26.58;;;10.35;;
27412;SDS011;14871;52.702;5.230;2023-02-20T16:47:04;22.05;;;8.30;;
27412;SDS011;14871;52.702;5.230;2023-02-20T16:49:29;22.13;;;9.00;;
27412;SDS011;14871;52.702;5.230;2023-02-20T16:52:01;18.05;;;8.93;;
27412;SDS011;14871;52.702;5.230;2023-02-20T16:54:33;12.65;;;6.82;;
27412;SDS011;14871;52.702;5.230;2023-02-20T16:56:59;20.63;;;8.30;;
27412;SDS011;14871;52.702;5.230;2023-02-20T16:59:24;20.65;;;9.13;;
27412;SDS011;14871;52.702;5.230;2023-02-20T17:01:50;16.48;;;6.65;;
27412;SDS011;14871;52.702;5.230;2023-02-20T17:04:16;16.98;;;7.82;;
27412;SDS011;14871;52.702;5.230;2023-02-20T17:06:43;22.27;;;8.07;;
27412;SDS011;14871;52.702;5.230;2023-02-20T17:09:10;18.13;;;7.55;;
27412;SDS011;14871;52.702;5.230;2023-02-20T17:11:36;16.42;;;7.38;;
27412;SDS011;14871;52.702;5.230;2023-02-20T17:14:01;23.88;;;9.43;;